Morganza, Louisiana
Current Conditions -  °F | °C
As of 12:15 PM on Wednesday 28 Jan 2015 (Local Time) from KHZR Reporting Station
Clear Clear  
Wind Chill: 65°   Ceiling: Unl
Heat Index: 65°   Visibility: 10mi
Dew Point: 37°   Wind: 5mph
Humidity: 36%   Direction: 100°E
Pressure: 30.26"   Gusts: NA
Location:  30.74°N, 91.59°W
Report Text: KHZR 281815Z AUTO 10004KT 10SM CLR 18/03 A3026 RMK AO2 T01820027
Loading
Personal Weather Stations






























Interactive Weather Map New forecast layout! Learn more

10-Day Weather Forecast

Advertisements
Track Severe Weather on mobile